Time;durP1;ratioP1;P1;durP2;ratioP2;P2;SDS_P1;SDS_P2;PMS_P1;PMS_P2;Temp;Humidity;BMP_temperature;BMP_pressure;BME280_temperature;BME280_humidity;BME280_pressure;Samples;Min_cycle;Max_cycle;Signal;HPM_P1;HPM_P2
2021/11/13 01:41:48;;;;;;;23.10;12.00;;;;;;;12.98;78.19;100847.13;5009903;28;20433;-70
2021/11/13 01:44:14;;;;;;;28.55;12.98;;;;;;;13.01;78.00;100849.72;5010216;28;20053;-72
2021/11/13 01:46:39;;;;;;;27.85;13.55;;;;;;;13.05;78.09;100847.16;4992353;28;20044;-71
2021/11/13 01:49:06;;;;;;;26.67;12.40;;;;;;;13.03;78.13;100844.50;5002070;28;20044;-71
2021/11/13 01:51:33;;;;;;;24.83;12.25;;;;;;;13.09;77.90;100846.28;4992242;28;20056;-71
2021/11/13 01:54:07;;;;;;;23.80;11.82;;;;;;;13.03;77.91;100844.50;5010500;28;20077;-72
2021/11/13 01:56:34;;;;;;;23.42;11.65;;;;;;;13.01;78.04;100846.25;4989214;28;20099;-71
2021/11/13 01:59:00;;;;;;;25.27;11.63;;;;;;;12.98;78.28;100841.88;5000852;28;20135;-71
2021/11/13 02:01:26;;;;;;;28.88;11.70;;;;;;;12.99;78.40;100843.59;5001963;28;20517;-73
2021/11/13 02:03:51;;;;;;;27.33;11.50;;;;;;;13.04;78.49;100843.66;4986047;28;20112;-72
2021/11/13 02:06:18;;;;;;;31.45;11.45;;;;;;;13.08;78.62;100841.91;4988728;28;20379;-72
2021/11/13 02:08:44;;;;;;;22.63;9.40;;;;;;;13.14;78.60;100840.22;4978156;28;20067;-72
2021/11/13 02:11:11;;;;;;;24.08;9.32;;;;;;;13.15;78.64;100839.34;5002931;28;20780;-72
2021/11/13 02:13:37;;;;;;;24.35;7.93;;;;;;;13.19;78.71;100840.22;4992504;28;20045;-72
2021/11/13 02:16:02;;;;;;;29.67;8.45;;;;;;;13.20;78.82;100832.38;4994504;28;20053;-72
2021/11/13 02:18:28;;;;;;;25.83;8.27;;;;;;;13.24;78.67;100833.22;5004030;28;20048;-72
2021/11/13 02:20:53;;;;;;;25.42;8.05;;;;;;;13.27;78.48;100838.50;4986032;28;20037;-72
2021/11/13 02:23:23;;;;;;;26.77;8.13;;;;;;;13.28;78.61;100832.38;5000522;28;20115;-73
2021/11/13 02:25:54;;;;;;;26.33;8.02;;;;;;;13.28;78.38;100827.16;5010259;28;20135;-72
2021/11/13 02:28:22;;;;;;;23.20;7.53;;;;;;;13.32;78.48;100823.66;4999843;28;20641;-73
2021/11/13 02:30:49;;;;;;;22.50;7.47;;;;;;;13.28;78.67;100820.19;4991187;28;20051;-73
2021/11/13 02:33:15;;;;;;;23.10;8.20;;;;;;;13.23;78.69;100819.31;5011615;28;20037;-72
2021/11/13 02:35:41;;;;;;;30.50;8.77;;;;;;;13.24;78.60;100818.41;4989309;28;20485;-70
2021/11/13 02:38:18;;;;;;;21.83;7.93;;;;;;;13.31;78.64;100814.06;4978475;28;20054;-71
2021/11/13 02:40:46;;;;;;;23.63;8.15;;;;;;;13.32;78.45;100814.06;5003601;28;20045;-71
2021/11/13 02:43:12;;;;;;;26.67;8.10;;;;;;;13.31;78.79;100816.66;5011993;28;20515;-71
2021/11/13 02:45:39;;;;;;;19.65;7.55;;;;;;;13.32;78.53;100826.28;5015788;28;20041;-71
2021/11/13 02:48:04;;;;;;;22.00;6.60;;;;;;;13.32;78.68;100826.28;4997178;28;20048;-72
2021/11/13 02:50:30;;;;;;;24.42;6.35;;;;;;;13.37;78.64;100828.03;5023064;28;20091;-71
2021/11/13 02:52:57;;;;;;;29.30;6.45;;;;;;;13.39;78.53;100825.41;5014172;28;20040;-71
2021/11/13 02:55:23;;;;;;;22.00;5.70;;;;;;;13.38;78.64;100824.53;5018069;28;20070;-73
2021/11/13 02:57:49;;;;;;;22.95;5.63;;;;;;;13.42;78.58;100825.41;4998629;28;20041;-73
2021/11/13 03:00:17;;;;;;;26.27;5.57;;;;;;;13.42;78.67;100825.41;5025922;28;20115;-72
2021/11/13 03:02:43;;;;;;;22.23;6.18;;;;;;;13.38;78.87;100826.28;4999447;28;20037;-71
2021/11/13 03:05:44;;;;;;;19.48;5.72;;;;;;;13.41;78.60;100818.44;5003420;28;20082;-71
2021/11/13 03:08:09;;;;;;;21.63;5.80;;;;;;;13.43;78.67;100813.19;5024247;28;20040;-72
2021/11/13 03:10:39;;;;;;;23.38;5.75;;;;;;;13.46;78.59;100823.69;4999568;28;20094;-72
2021/11/13 03:13:05;;;;;;;18.75;5.55;;;;;;;13.47;78.62;100828.06;5014698;28;20076;-71
2021/11/13 03:15:30;;;;;;;22.17;5.80;;;;;;;13.46;78.58;100823.69;5000030;28;20044;-71
2021/11/13 03:17:58;;;;;;;20.30;5.53;;;;;;;13.47;78.37;100818.44;4998386;28;20204;-71
2021/11/13 03:20:28;;;;;;;16.50;4.70;;;;;;;13.49;78.55;100828.91;5001848;28;20049;-71
2021/11/13 03:22:56;;;;;;;22.00;5.47;;;;;;;13.46;78.62;100831.53;4993114;28;20186;-72
2021/11/13 03:25:23;;;;;;;23.48;5.53;;;;;;;13.46;78.49;100836.78;5027539;28;20578;-71
2021/11/13 03:27:51;;;;;;;24.48;5.57;;;;;;;13.46;78.45;100832.41;5020210;28;20040;-71
2021/11/13 03:30:18;;;;;;;23.60;5.95;;;;;;;13.47;78.50;100838.53;5021529;28;20674;-71
2021/11/13 03:32:43;;;;;;;19.60;5.28;;;;;;;13.43;78.61;100826.28;5008414;28;20811;-70
2021/11/13 03:35:12;;;;;;;16.83;4.88;;;;;;;13.42;78.52;100828.03;5010565;28;20072;-71
2021/11/13 03:37:38;;;;;;;23.58;5.15;;;;;;;13.39;78.47;100831.53;5021683;28;20032;-71
2021/11/13 03:40:04;;;;;;;20.30;5.00;;;;;;;13.42;78.52;100833.25;5026962;28;20032;-72
2021/11/13 03:42:31;;;;;;;23.05;4.93;;;;;;;13.42;78.52;100846.34;5014897;28;20050;-71
2021/11/13 03:44:58;;;;;;;17.98;5.50;;;;;;;13.44;78.57;100848.97;5009140;28;21112;-71
2021/11/13 03:47:24;;;;;;;15.15;5.07;;;;;;;13.44;78.46;100844.63;5003908;28;20072;-71
2021/11/13 03:49:49;;;;;;;22.35;5.28;;;;;;;13.43;78.55;100844.59;5023617;28;20048;-70
2021/11/13 03:52:14;;;;;;;18.65;5.10;;;;;;;13.45;78.55;100841.13;5011830;28;20382;-71
2021/11/13 03:54:40;;;;;;;20.80;5.20;;;;;;;13.42;78.60;100848.13;5010740;28;20087;-72
2021/11/13 03:57:06;;;;;;;16.42;3.65;;;;;;;13.47;78.37;100860.34;5017849;28;20060;-72
2021/11/13 03:59:31;;;;;;;23.23;3.80;;;;;;;13.46;78.67;100852.50;5023956;28;20053;-71
2021/11/13 04:01:57;;;;;;;12.85;2.80;;;;;;;13.40;78.68;100851.63;5002066;28;20104;-72
2021/11/13 04:04:24;;;;;;;14.55;2.60;;;;;;;13.38;78.49;100852.47;5027225;28;20044;-72
2021/11/13 04:06:49;;;;;;;14.57;2.40;;;;;;;13.38;78.31;100862.94;5012207;28;20037;-70
2021/11/13 04:09:15;;;;;;;12.10;2.30;;;;;;;13.36;78.34;100862.06;5027325;28;20435;-71
2021/11/13 04:11:40;;;;;;;13.00;2.25;;;;;;;13.34;78.53;100864.69;5031804;28;20110;-71
2021/11/13 04:14:05;;;;;;;13.85;2.20;;;;;;;13.32;78.39;100855.06;5003605;28;20285;-71
2021/11/13 04:16:31;;;;;;;12.90;2.15;;;;;;;13.31;78.47;100864.66;5010390;28;20045;-72
2021/11/13 04:18:56;;;;;;;11.55;2.20;;;;;;;13.31;78.35;100866.41;4990868;28;21045;-72
2021/11/13 04:21:21;;;;;;;10.98;2.13;;;;;;;13.27;78.12;100868.16;5024590;28;20390;-72
2021/11/13 04:23:47;;;;;;;8.52;2.40;;;;;;;13.27;78.10;100862.94;5026278;28;20049;-71
2021/11/13 04:26:13;;;;;;;11.20;2.00;;;;;;;13.25;78.20;100862.03;5008969;28;20052;-72
2021/11/13 04:28:38;;;;;;;7.65;1.95;;;;;;;13.25;78.19;100866.41;4999255;28;20045;-72
2021/11/13 04:31:04;;;;;;;13.93;2.22;;;;;;;13.29;78.20;100870.78;5025334;28;20056;-72
2021/11/13 04:33:29;;;;;;;14.50;2.53;;;;;;;13.34;78.12;100874.28;5026432;28;20045;-72
2021/11/13 04:38:31;;;;;;;13.15;2.50;;;;;;;13.29;78.25;100881.28;4990026;28;20037;-72
2021/11/13 04:40:57;;;;;;;11.25;2.42;;;;;;;13.32;78.02;100879.53;5008125;28;20554;-72
2021/11/13 04:43:22;;;;;;;14.48;2.25;;;;;;;13.32;78.00;100883.88;5011793;28;20443;-71
2021/11/13 04:45:48;;;;;;;9.13;1.73;;;;;;;13.34;78.00;100890.88;5014464;28;20041;-71
2021/11/13 04:48:13;;;;;;;8.90;1.83;;;;;;;13.31;77.90;100890.84;5000196;28;20029;-71
2021/11/13 04:50:39;;;;;;;8.80;1.60;;;;;;;13.28;77.72;100887.38;5017513;28;20044;-71
2021/11/13 04:53:05;;;;;;;9.45;1.70;;;;;;;13.23;77.94;100889.97;4999826;28;20500;-72
2021/11/13 04:55:30;;;;;;;8.73;1.70;;;;;;;13.22;77.68;100897.81;5001976;28;20316;-72
2021/11/13 04:57:56;;;;;;;8.68;1.65;;;;;;;13.23;77.61;100899.59;5008081;28;20441;-71
2021/11/13 05:00:25;;;;;;;8.70;1.90;;;;;;;13.19;78.21;100897.81;5021259;28;20115;-71
2021/11/13 05:02:51;;;;;;;6.32;1.73;;;;;;;13.21;77.96;100898.69;5000491;28;20923;-72
2021/11/13 05:05:17;;;;;;;10.05;1.70;;;;;;;13.22;78.18;100898.69;5027402;28;20060;-72
2021/11/13 05:07:42;;;;;;;7.25;1.83;;;;;;;13.20;77.98;100896.94;5019829;28;20056;-72
2021/11/13 05:10:08;;;;;;;7.88;1.90;;;;;;;13.22;77.88;100898.69;5030022;28;20067;-72
2021/11/13 05:12:34;;;;;;;10.85;1.83;;;;;;;13.24;77.93;100899.56;5013097;28;20041;-71
2021/11/13 05:14:59;;;;;;;8.25;2.00;;;;;;;13.27;77.82;100903.94;5014327;28;20671;-72
2021/11/13 05:17:24;;;;;;;9.43;2.13;;;;;;;13.29;77.96;100910.06;5022794;28;20040;-72
2021/11/13 05:19:50;;;;;;;12.48;2.10;;;;;;;13.29;77.87;100915.31;5009194;28;20048;-71
2021/11/13 05:22:15;;;;;;;12.00;2.00;;;;;;;13.31;77.95;100910.94;5022289;28;20040;-72
2021/11/13 05:24:41;;;;;;;11.32;2.10;;;;;;;13.31;77.76;100911.81;4996420;28;20117;-72
2021/11/13 05:27:06;;;;;;;5.85;1.80;;;;;;;13.33;77.90;100914.44;5024512;28;20051;-71
2021/11/13 05:29:32;;;;;;;12.27;2.03;;;;;;;13.32;77.99;100920.53;5018712;28;20296;-71
2021/11/13 05:31:57;;;;;;;8.80;1.90;;;;;;;13.32;78.07;100920.53;4992402;28;20500;-71
2021/11/13 05:34:22;;;;;;;5.47;1.90;;;;;;;13.33;78.01;100920.56;5016874;28;20076;-72
2021/11/13 05:36:48;;;;;;;7.45;2.08;;;;;;;13.32;78.00;100917.91;4999546;28;20887;-71
2021/11/13 05:39:14;;;;;;;9.43;1.95;;;;;;;13.32;78.08;100920.53;5017326;28;20080;-72
2021/11/13 05:41:40;;;;;;;7.03;2.20;;;;;;;13.33;77.98;100927.53;5001879;28;20092;-71
2021/11/13 05:44:05;;;;;;;5.82;1.75;;;;;;;13.36;78.01;100930.13;5023231;28;20048;-72
2021/11/13 05:46:31;;;;;;;7.90;2.10;;;;;;;13.35;78.26;100928.41;5019244;28;20131;-73
2021/11/13 05:48:56;;;;;;;9.43;1.88;;;;;;;13.34;78.25;100932.78;5007625;28;20767;-71
2021/11/13 05:51:22;;;;;;;8.75;1.85;;;;;;;13.34;78.28;100942.38;5027183;28;20578;-72
2021/11/13 05:53:47;;;;;;;5.88;1.77;;;;;;;13.36;78.07;100933.63;5013038;28;20067;-71
2021/11/13 05:56:13;;;;;;;5.97;1.90;;;;;;;13.39;78.05;100943.25;5016713;28;20397;-72
2021/11/13 05:58:38;;;;;;;7.22;1.90;;;;;;;13.38;78.08;100936.25;5011872;28;20044;-72
2021/11/13 06:01:04;;;;;;;8.38;1.80;;;;;;;13.38;78.21;100938.88;5017907;28;20904;-72
2021/11/13 06:03:29;;;;;;;7.68;1.75;;;;;;;13.36;77.99;100944.09;4997499;28;20045;-72
2021/11/13 06:05:55;;;;;;;5.30;1.70;;;;;;;13.37;78.03;100947.59;5021291;28;20068;-72
2021/11/13 06:08:20;;;;;;;5.20;1.58;;;;;;;13.35;78.03;100942.38;5017443;28;20599;-71
2021/11/13 06:10:45;;;;;;;5.72;1.88;;;;;;;13.35;78.12;100950.25;4993226;28;20048;-72
2021/11/13 06:13:11;;;;;;;6.13;1.70;;;;;;;13.34;78.38;100945.00;5029294;28;20049;-71
2021/11/13 06:15:36;;;;;;;7.93;1.92;;;;;;;13.33;78.17;100943.25;5000143;28;20046;-72
2021/11/13 06:18:01;;;;;;;7.30;1.73;;;;;;;13.32;78.21;100949.34;5021001;28;20098;-71
2021/11/13 06:20:27;;;;;;;5.78;1.80;;;;;;;13.31;78.27;100952.81;5024111;28;20048;-71
2021/11/13 06:22:53;;;;;;;7.97;1.60;;;;;;;13.35;78.03;100955.47;5016988;28;20033;-72
2021/11/13 06:25:18;;;;;;;4.28;1.33;;;;;;;13.36;78.00;100957.19;4994026;28;20065;-71
2021/11/13 06:27:44;;;;;;;8.30;1.38;;;;;;;13.37;77.96;100960.69;5001375;28;20143;-72
2021/11/13 06:30:11;;;;;;;5.63;1.50;;;;;;;13.38;78.00;100965.06;5011777;28;20049;-72
2021/11/13 06:32:38;;;;;;;12.98;1.60;;;;;;;13.37;78.03;100958.94;5007367;28;20489;-71
2021/11/13 06:35:05;;;;;;;6.88;1.55;;;;;;;13.35;78.21;100959.84;5001155;28;20055;-73
2021/11/13 06:37:32;;;;;;;5.45;1.65;;;;;;;13.32;78.23;100972.91;5011346;28;20044;-71
2021/11/13 06:39:58;;;;;;;9.50;1.70;;;;;;;13.31;78.18;100972.03;5023684;28;20040;-71
2021/11/13 06:42:23;;;;;;;10.32;1.80;;;;;;;13.34;78.08;100974.66;5024342;28;20147;-71
2021/11/13 06:44:48;;;;;;;6.72;1.70;;;;;;;13.31;78.38;100986.84;5016884;28;20036;-72
2021/11/13 06:47:14;;;;;;;7.75;1.60;;;;;;;13.31;78.19;100982.50;5010304;28;20619;-72
2021/11/13 06:49:39;;;;;;;10.32;1.77;;;;;;;13.30;78.29;100990.34;5011961;28;20040;-71
2021/11/13 06:52:06;;;;;;;8.45;1.60;;;;;;;13.28;78.23;100984.25;5011571;28;20079;-72
2021/11/13 06:54:31;;;;;;;8.60;1.80;;;;;;;13.29;78.31;100994.72;5009831;28;20044;-71
2021/11/13 06:56:56;;;;;;;5.65;1.95;;;;;;;13.32;78.42;101004.31;5003402;28;20650;-72
2021/11/13 06:59:22;;;;;;;6.63;1.67;;;;;;;13.32;78.47;101001.72;5015535;28;20037;-72
2021/11/13 07:01:48;;;;;;;6.22;1.80;;;;;;;13.33;78.31;101006.09;5013016;28;20076;-72
2021/11/13 07:04:13;;;;;;;7.85;2.17;;;;;;;13.35;78.37;101007.84;5023559;28;20048;-71
2021/11/13 07:06:38;;;;;;;6.57;1.98;;;;;;;13.33;78.53;101009.56;5001857;28;20049;-71
2021/11/13 07:09:04;;;;;;;7.80;2.30;;;;;;;13.33;78.54;101019.16;5013126;28;20482;-72
2021/11/13 07:11:30;;;;;;;9.50;2.40;;;;;;;13.31;78.44;101027.00;4990531;28;20529;-72
2021/11/13 07:13:55;;;;;;;13.07;2.60;;;;;;;13.31;78.47;101034.00;5025570;28;20615;-72
2021/11/13 07:16:21;;;;;;;8.32;2.60;;;;;;;13.32;78.49;101041.88;5027618;28;20040;-72
2021/11/13 07:18:46;;;;;;;7.93;2.67;;;;;;;13.32;78.42;101038.38;4996977;28;20323;-71
2021/11/13 07:21:11;;;;;;;12.45;3.30;;;;;;;13.33;78.38;101046.22;5019839;28;20567;-72
2021/11/13 07:23:37;;;;;;;9.77;2.85;;;;;;;13.33;78.44;101046.22;5006635;28;20029;-71
2021/11/13 07:26:06;;;;;;;9.02;2.90;;;;;;;13.35;78.59;101046.25;5008240;28;20048;-71
2021/11/13 07:28:51;;;;;;;9.80;2.72;;;;;;;13.37;78.51;101053.22;5017268;28;20588;-72
2021/11/13 07:31:18;;;;;;;12.02;2.90;;;;;;;13.40;78.47;101058.50;5014353;28;20048;-71
2021/11/13 07:33:45;;;;;;;12.70;3.20;;;;;;;13.44;78.62;101062.00;5017769;28;20036;-71
2021/11/13 07:36:12;;;;;;;11.07;3.25;;;;;;;13.48;78.43;101065.53;5021861;28;20048;-71
2021/11/13 07:38:39;;;;;;;8.55;3.03;;;;;;;13.52;78.65;101067.28;5023612;28;20041;-71
2021/11/13 07:41:06;;;;;;;9.20;2.90;;;;;;;13.54;78.63;101069.00;5003524;28;20157;-71
2021/11/13 07:43:31;;;;;;;8.65;2.97;;;;;;;13.54;78.68;101073.41;5031362;28;20098;-71
2021/11/13 07:45:57;;;;;;;10.43;3.40;;;;;;;13.57;78.71;101078.63;5020105;28;20033;-71
2021/11/13 07:48:22;;;;;;;13.10;3.30;;;;;;;13.62;78.66;101082.16;5010512;28;20111;-71
2021/11/13 07:50:48;;;;;;;6.88;2.78;;;;;;;13.65;78.59;101075.19;5000718;28;20442;-72
2021/11/13 07:53:13;;;;;;;4.93;2.63;;;;;;;13.70;78.73;101076.09;5022715;28;20067;-72
2021/11/13 07:55:39;;;;;;;7.03;2.90;;;;;;;13.73;78.69;101080.44;5022261;28;20516;-72
2021/11/13 07:58:05;;;;;;;7.82;3.30;;;;;;;13.76;78.41;101072.59;5027459;28;20051;-72
2021/11/13 08:00:30;;;;;;;6.13;2.80;;;;;;;13.80;78.16;101079.59;5008578;28;20038;-72
2021/11/13 08:02:58;;;;;;;4.75;2.72;;;;;;;13.84;78.22;101089.25;5001213;28;20415;-72
2021/11/13 08:05:24;;;;;;;11.63;3.35;;;;;;;13.97;78.17;101092.75;4997596;28;20041;-72
2021/11/13 08:07:50;;;;;;;10.25;3.47;;;;;;;14.13;78.45;101091.94;5003590;28;20061;-73
2021/11/13 08:10:16;;;;;;;9.85;3.15;;;;;;;14.33;78.42;101092.00;5016224;28;20093;-71
2021/11/13 08:12:42;;;;;;;8.90;3.03;;;;;;;14.49;78.38;101089.41;5012676;28;20056;-72
2021/11/13 08:15:09;;;;;;;11.57;3.00;;;;;;;14.57;78.13;101092.03;5022602;28;20075;-72
2021/11/13 08:17:35;;;;;;;8.27;2.50;;;;;;;14.66;77.92;101104.28;5007339;28;20073;-72
2021/11/13 08:20:02;;;;;;;10.90;2.63;;;;;;;14.64;77.59;101106.88;5015531;28;20037;-71
2021/11/13 08:22:27;;;;;;;6.95;2.40;;;;;;;14.66;77.40;101109.53;5026285;28;20805;-72
2021/11/13 08:24:53;;;;;;;7.50;2.67;;;;;;;14.65;77.41;101107.78;5021620;28;20046;-71
2021/11/13 08:27:18;;;;;;;10.82;2.60;;;;;;;14.62;77.17;101119.16;5008876;28;20048;-72
2021/11/13 08:29:44;;;;;;;12.05;2.63;;;;;;;14.54;77.16;101126.13;5012997;28;20152;-72
2021/11/13 08:32:09;;;;;;;8.13;2.50;;;;;;;14.47;76.84;101114.75;5023581;28;20041;-71
2021/11/13 08:34:36;;;;;;;8.10;3.00;;;;;;;14.44;77.01;101122.63;4995556;28;20049;-71
2021/11/13 08:37:03;;;;;;;9.40;2.63;;;;;;;14.43;76.96;101130.50;4991633;28;20220;-72
2021/11/13 08:39:34;;;;;;;7.95;2.35;;;;;;;14.39;76.99;101131.38;4997275;28;20430;-72
2021/11/13 08:42:03;;;;;;;10.30;2.45;;;;;;;14.42;77.37;101131.34;5013177;28;20544;-72
2021/11/13 08:44:28;;;;;;;10.63;2.50;;;;;;;14.44;77.56;101130.50;5022264;28;20041;-71
2021/11/13 08:46:55;;;;;;;8.68;2.70;;;;;;;14.54;77.36;101132.25;4994125;28;20033;-72
2021/11/13 08:49:22;;;;;;;9.90;2.35;;;;;;;14.58;77.46;101135.75;5016851;28;20107;-72
2021/11/13 08:51:48;;;;;;;8.15;2.40;;;;;;;14.70;77.57;101143.63;5017479;28;20477;-71
2021/11/13 08:54:13;;;;;;;9.48;2.50;;;;;;;14.88;77.10;101143.63;5021108;28;20102;-71
2021/11/13 08:56:39;;;;;;;6.22;2.05;;;;;;;14.92;76.85;101144.53;5002189;28;20493;-72
2021/11/13 08:59:04;;;;;;;4.03;1.85;;;;;;;15.01;76.31;101144.50;5004128;28;20056;-72
2021/11/13 09:01:30;;;;;;;6.47;2.10;;;;;;;15.05;76.04;101148.03;5026242;28;20413;-72
2021/11/13 09:03:56;;;;;;;8.20;1.95;;;;;;;15.14;76.06;101153.25;5014770;28;20872;-71
2021/11/13 09:06:24;;;;;;;6.80;2.00;;;;;;;15.24;76.08;101152.41;5034079;28;20109;-72
2021/11/13 09:08:50;;;;;;;5.32;1.63;;;;;;;15.34;75.66;101151.50;4997556;28;20128;-70
2021/11/13 09:11:19;;;;;;;5.45;1.58;;;;;;;15.34;75.19;101146.25;4982543;28;20037;-72
2021/11/13 09:13:45;;;;;;;7.07;1.70;;;;;;;15.29;74.35;101155.88;4998570;28;20125;-71
2021/11/13 09:16:11;;;;;;;4.28;1.45;;;;;;;15.27;74.33;101155.00;5018854;28;20136;-71
2021/11/13 09:18:38;;;;;;;4.28;1.70;;;;;;;15.16;74.06;101170.78;4999949;28;20043;-71
2021/11/13 09:21:05;;;;;;;6.15;1.90;;;;;;;15.13;73.97;101160.25;4994811;28;20516;-71
2021/11/13 09:23:30;;;;;;;5.88;2.00;;;;;;;15.02;74.32;101157.66;5002205;28;20504;-72
2021/11/13 09:25:56;;;;;;;8.00;2.20;;;;;;;14.95;74.31;101169.03;5022868;28;20854;-72
2021/11/13 09:28:22;;;;;;;5.57;1.90;;;;;;;14.93;74.42;101170.78;5028622;28;20700;-72
2021/11/13 09:30:48;;;;;;;7.25;1.70;;;;;;;14.92;74.85;101169.03;5002190;28;20041;-72
2021/11/13 09:33:13;;;;;;;9.98;1.70;;;;;;;14.94;74.84;101175.16;5011073;28;20068;-72
2021/11/13 09:35:41;;;;;;;6.57;1.98;;;;;;;15.01;74.89;101174.28;5024739;28;20086;-71
2021/11/13 09:38:07;;;;;;;5.53;1.98;;;;;;;15.09;74.70;101179.53;5006606;28;20041;-72
2021/11/13 09:40:33;;;;;;;4.10;1.40;;;;;;;15.14;74.98;101175.16;5010524;28;20036;-73
2021/11/13 09:43:00;;;;;;;5.63;1.58;;;;;;;15.15;74.81;101174.28;5014654;28;20253;-72
2021/11/13 09:45:26;;;;;;;8.63;2.15;;;;;;;15.23;74.70;101176.91;5016936;28;20133;-73
2021/11/13 09:47:53;;;;;;;5.40;1.45;;;;;;;15.36;74.87;101183.91;5024207;28;20631;-73
2021/11/13 09:50:21;;;;;;;5.03;1.90;;;;;;;15.57;74.84;101185.63;5013305;28;20067;-73
2021/11/13 09:52:46;;;;;;;6.55;1.60;;;;;;;15.79;74.94;101193.50;4998731;28;20092;-74
2021/11/13 09:55:13;;;;;;;4.95;1.42;;;;;;;15.95;73.32;101194.31;5004652;28;20549;-73
2021/11/13 09:57:39;;;;;;;4.25;1.65;;;;;;;16.04;73.10;101196.03;5015454;28;20062;-73
2021/11/13 10:00:14;;;;;;;6.25;1.60;;;;;;;16.12;72.38;101200.38;5000085;28;21609;-73
2021/11/13 10:02:43;;;;;;;8.35;1.80;;;;;;;16.21;72.11;101197.72;5022621;28;20075;-73
2021/11/13 10:05:10;;;;;;;4.82;1.50;;;;;;;16.14;71.26;101200.38;5021828;28;20052;-73
2021/11/13 10:07:36;;;;;;;4.80;1.58;;;;;;;16.28;70.66;101200.31;4998571;28;20032;-73
2021/11/13 10:10:06;;;;;;;5.20;1.33;;;;;;;16.34;70.47;101205.53;5016327;28;20036;-74
2021/11/13 10:12:40;;;;;;;4.82;1.60;;;;;;;16.30;70.25;101204.66;5012555;28;20052;-74
2021/11/13 10:15:29;;;;;;;5.82;1.50;;;;;;;16.33;70.30;101206.41;5022054;28;20033;-73
2021/11/13 10:18:16;;;;;;;5.53;1.50;;;;;;;16.32;69.86;101207.28;4999398;28;20056;-73
2021/11/13 10:20:49;;;;;;;8.68;1.40;;;;;;;16.21;69.46;101215.25;5010966;28;20228;-73
2021/11/13 10:23:40;;;;;;;5.43;1.40;;;;;;;16.32;69.53;101208.16;4989622;28;20032;-74
2021/11/13 10:26:15;;;;;;;4.35;1.35;;;;;;;16.35;69.90;101221.31;5007049;28;20425;-74
2021/11/13 10:28:48;;;;;;;3.78;1.60;;;;;;;16.41;70.07;101217.75;5016553;28;20456;-73
2021/11/13 10:31:20;;;;;;;5.25;1.48;;;;;;;16.47;70.18;101212.47;5023389;28;20040;-74
2021/11/13 10:33:47;;;;;;;4.63;1.30;;;;;;;16.49;69.76;101219.47;5017303;28;20091;-74
2021/11/13 10:36:12;;;;;;;6.95;1.60;;;;;;;16.47;70.39;101225.63;5016250;28;20619;-74
2021/11/13 10:38:39;;;;;;;5.28;1.60;;;;;;;16.44;70.21;101225.66;5016569;28;20044;-75
2021/11/13 10:41:09;;;;;;;5.20;1.48;;;;;;;16.34;69.32;101227.47;5000696;28;20059;-72
2021/11/13 10:43:38;;;;;;;4.25;1.35;;;;;;;16.20;69.45;101232.78;5012186;28;20514;-74
2021/11/13 10:46:16;;;;;;;6.78;1.50;;;;;;;16.10;69.47;101231.03;5016995;28;20052;-72
2021/11/13 10:48:45;;;;;;;8.95;1.65;;;;;;;15.92;69.59;101233.72;5009140;28;20037;-72
2021/11/13 10:51:20;;;;;;;4.82;1.60;;;;;;;15.73;70.24;101229.44;4987419;28;20593;-72
2021/11/13 10:53:46;;;;;;;5.53;1.60;;;;;;;15.46;70.92;101232.94;5008163;28;20036;-72
2021/11/13 10:56:14;;;;;;;5.32;1.60;;;;;;;15.42;71.35;101239.06;5016345;28;20049;-71
2021/11/13 10:58:58;;;;;;;6.53;1.60;;;;;;;15.25;71.90;101235.53;4995167;28;20033;-71
2021/11/13 11:01:23;;;;;;;5.68;1.70;;;;;;;15.21;71.79;101232.06;5011822;28;20052;-72
2021/11/13 11:03:53;;;;;;;5.95;1.75;;;;;;;15.23;72.08;101232.94;5019429;28;20098;-72
2021/11/13 11:06:30;;;;;;;4.00;1.33;;;;;;;15.24;72.28;101229.44;5021426;28;20047;-72
2021/11/13 11:08:55;;;;;;;5.03;1.70;;;;;;;15.27;72.54;101242.56;4997857;28;20489;-72
2021/11/13 11:11:41;;;;;;;5.53;1.70;;;;;;;15.28;72.26;101238.19;5010701;28;20047;-71
2021/11/13 11:14:09;;;;;;;5.13;1.80;;;;;;;15.29;72.34;101235.56;5019640;28;20512;-73
2021/11/13 11:16:37;;;;;;;5.13;1.60;;;;;;;15.36;72.26;101239.06;5027864;28;20768;-74
2021/11/13 11:19:15;;;;;;;3.90;1.60;;;;;;;15.48;72.53;101246.06;5021290;28;20053;-72
2021/11/13 11:21:43;;;;;;;5.60;1.50;;;;;;;15.47;71.62;101245.19;5003939;28;20044;-72
2021/11/13 11:24:15;;;;;;;7.00;1.90;;;;;;;15.51;71.12;101241.69;5014602;28;20045;-72
2021/11/13 11:26:41;;;;;;;3.75;1.70;;;;;;;15.48;71.09;101241.69;4976549;28;20037;-72
2021/11/13 11:29:07;;;;;;;5.93;1.70;;;;;;;15.57;70.27;101244.31;5008102;28;20755;-71
2021/11/13 11:31:46;;;;;;;5.03;1.70;;;;;;;15.81;70.41;101246.91;5017396;28;20097;-73
2021/11/13 11:34:28;;;;;;;4.35;1.58;;;;;;;16.01;69.83;101251.25;5007589;28;20111;-72
2021/11/13 11:36:55;;;;;;;4.90;1.50;;;;;;;16.29;68.92;101245.00;5011125;28;20048;-72
2021/11/13 11:39:22;;;;;;;4.63;1.23;;;;;;;16.63;67.52;101246.66;4992509;28;20052;-72
2021/11/13 11:41:48;;;;;;;3.05;1.20;;;;;;;16.81;66.89;101257.94;5023400;28;20368;-72
2021/11/13 11:44:15;;;;;;;6.10;1.30;;;;;;;16.78;66.34;101257.94;5011874;28;20556;-72
2021/11/13 11:46:40;;;;;;;5.10;1.30;;;;;;;16.70;67.05;101258.03;4985527;28;20574;-74
2021/11/13 11:49:13;;;;;;;4.03;1.05;;;;;;;16.67;67.05;101262.41;5020367;28;20052;-72
2021/11/13 11:51:40;;;;;;;3.42;1.13;;;;;;;16.52;67.16;101268.63;4993050;28;20492;-72
2021/11/13 11:54:07;;;;;;;3.00;1.17;;;;;;;16.52;66.97;101272.13;5016468;28;20515;-72
2021/11/13 11:56:34;;;;;;;4.13;1.40;;;;;;;16.60;67.64;101269.47;5019432;28;20036;-72
2021/11/13 11:59:01;;;;;;;5.47;1.20;;;;;;;16.77;67.50;101278.13;4977684;28;20099;-72
2021/11/13 12:01:29;;;;;;;2.17;1.00;;;;;;;16.97;65.89;101272.75;4989029;28;20060;-73
2021/11/13 12:04:17;;;;;;;8.02;1.13;;;;;;;17.08;64.73;101278.81;5029925;28;20056;-73
2021/11/13 12:06:47;;;;;;;5.25;1.13;;;;;;;16.90;65.02;101276.31;5003892;28;20028;-72
2021/11/13 12:09:13;;;;;;;6.68;1.10;;;;;;;16.46;65.34;101268.63;5028903;28;20040;-71
2021/11/13 12:11:38;;;;;;;5.28;1.00;;;;;;;16.08;65.06;101272.28;5018086;28;20162;-71
2021/11/13 12:14:23;;;;;;;3.00;1.10;;;;;;;16.17;65.80;101277.50;5006768;28;20586;-71
2021/11/13 12:16:50;;;;;;;3.47;0.93;;;;;;;16.20;66.07;101290.66;4993672;28;20036;-71
2021/11/13 12:19:15;;;;;;;3.60;0.90;;;;;;;16.11;66.57;101282.78;5005769;28;20052;-72
2021/11/13 12:21:52;;;;;;;3.78;1.10;;;;;;;16.20;67.19;101282.78;5026266;28;20032;-69
2021/11/13 12:24:18;;;;;;;4.07;1.10;;;;;;;16.14;66.35;101284.53;5022148;28;20721;-71
2021/11/13 12:26:58;;;;;;;2.60;0.90;;;;;;;16.23;66.36;101293.25;5010232;28;20040;-72
2021/11/13 12:29:23;;;;;;;1.98;0.90;;;;;;;16.30;66.15;101291.50;5004132;28;20137;-71
2021/11/13 12:31:53;;;;;;;2.58;0.90;;;;;;;16.35;65.91;101296.72;5004486;28;20127;-71
2021/11/13 12:34:21;;;;;;;3.30;0.70;;;;;;;16.38;65.71;101302.00;5014465;28;20484;-73
2021/11/13 12:36:51;;;;;;;2.92;0.70;;;;;;;16.36;64.89;101304.63;4990607;28;20039;-72
2021/11/13 12:39:19;;;;;;;2.38;0.70;;;;;;;16.40;65.78;101301.13;5030158;28;20270;-72
2021/11/13 12:41:50;;;;;;;3.53;0.80;;;;;;;16.38;65.34;101304.63;5026144;28;20781;-71
2021/11/13 12:44:20;;;;;;;4.70;0.80;;;;;;;16.30;65.21;101302.00;5016472;28;20048;-70
2021/11/13 12:46:52;;;;;;;2.47;1.00;;;;;;;16.45;65.57;101307.25;4992124;28;20390;-71
2021/11/13 12:49:23;;;;;;;2.33;0.85;;;;;;;16.58;66.08;101311.56;5014939;28;20051;-71
2021/11/13 12:51:52;;;;;;;2.20;0.80;;;;;;;16.60;66.65;101317.72;5007769;28;20059;-72
2021/11/13 12:54:41;;;;;;;3.22;0.90;;;;;;;16.62;67.00;101315.09;5020608;28;20167;-72
2021/11/13 12:57:44;;;;;;;1.30;0.70;;;;;;;16.54;66.33;101308.94;5009667;28;20040;-71
2021/11/13 13:00:14;;;;;;;4.30;0.80;;;;;;;16.51;66.10;101317.75;5015049;28;20064;-71
2021/11/13 13:02:40;;;;;;;1.55;0.82;;;;;;;16.49;65.77;101314.22;5002867;28;20173;-73
2021/11/13 13:05:10;;;;;;;2.30;0.85;;;;;;;16.53;65.93;101321.22;4991417;28;20478;-72
2021/11/13 13:07:36;;;;;;;1.38;0.80;;;;;;;16.51;66.00;101320.38;5026724;28;20075;-71